Time;durP1;ratioP1;P1;durP2;ratioP2;P2;SDS_P1;SDS_P2;PMS_P1;PMS_P2;Temp;Humidity;BMP_temperature;BMP_pressure;BME280_temperature;BME280_humidity;BME280_pressure;Samples;Min_cycle;Max_cycle;Signal;HPM_P1;HPM_P2
2022/11/03 00:01:36;;;;;;;7.72;3.30;;;11.20;99.90;;;;;;5047830;28;20055;-76
2022/11/03 00:04:03;;;;;;;6.57;2.55;;;11.20;99.90;;;;;;5045016;28;20041;-76
2022/11/03 00:06:29;;;;;;;7.38;2.58;;;11.20;99.90;;;;;;5049885;28;20108;-76
2022/11/03 00:08:58;;;;;;;10.32;2.67;;;11.30;99.90;;;;;;5047273;28;20448;-76
2022/11/03 00:11:24;;;;;;;7.63;2.95;;;11.30;99.90;;;;;;5047207;28;20040;-76
2022/11/03 00:13:50;;;;;;;9.50;2.72;;;11.30;99.90;;;;;;5046905;28;20041;-75
2022/11/03 00:16:15;;;;;;;10.30;3.80;;;11.30;99.90;;;;;;5047087;28;20055;-76
2022/11/03 00:18:41;;;;;;;8.70;3.40;;;11.30;99.90;;;;;;5038823;28;20045;-76
2022/11/03 00:21:09;;;;;;;5.05;2.38;;;11.30;99.90;;;;;;5048109;28;20052;-77
2022/11/03 00:23:38;;;;;;;10.75;3.25;;;11.30;99.90;;;;;;5043811;28;20047;-76
2022/11/03 00:26:04;;;;;;;13.77;2.78;;;11.30;99.90;;;;;;5038684;28;20109;-77
2022/11/03 00:28:32;;;;;;;5.45;2.63;;;11.30;99.90;;;;;;5043687;28;20420;-76
2022/11/03 00:30:58;;;;;;;10.55;4.30;;;11.30;99.90;;;;;;5044632;28;20181;-76
2022/11/03 00:33:25;;;;;;;7.72;3.35;;;11.30;99.90;;;;;;5051781;28;20121;-76
2022/11/03 00:35:57;;;;;;;8.10;3.22;;;11.30;99.90;;;;;;5047540;28;20399;-76
2022/11/03 00:38:23;;;;;;;10.63;3.03;;;11.30;99.90;;;;;;5050793;28;20136;-76
2022/11/03 00:40:53;;;;;;;11.40;3.60;;;11.30;99.90;;;;;;5053174;28;20048;-76
2022/11/03 00:43:20;;;;;;;11.65;3.47;;;11.30;99.90;;;;;;5050919;28;20052;-76
2022/11/03 00:45:46;;;;;;;6.20;2.80;;;11.20;99.90;;;;;;5048946;28;20045;-76
2022/11/03 00:48:30;;;;;;;9.80;2.95;;;11.20;99.90;;;;;;5046971;28;20434;-76
2022/11/03 00:51:17;;;;;;;9.68;2.65;;;11.20;99.90;;;;;;5053214;28;20048;-76
2022/11/03 00:53:53;;;;;;;6.68;3.45;;;11.30;99.90;;;;;;5052031;28;20056;-76
2022/11/03 00:56:21;;;;;;;6.78;2.58;;;11.30;99.90;;;;;;5055346;28;20224;-76
2022/11/03 00:58:48;;;;;;;6.50;2.78;;;11.20;99.90;;;;;;5051559;28;20061;-77
2022/11/03 01:01:16;;;;;;;9.73;3.15;;;11.20;99.90;;;;;;5049437;28;20059;-76
2022/11/03 01:09:26;;;;;;;6.53;3.28;;;11.10;99.90;;;;;;5053541;28;20598;-76
2022/11/03 01:12:14;;;;;;;6.30;2.85;;;11.10;99.90;;;;;;5045957;28;20051;-76
2022/11/03 01:14:45;;;;;;;9.40;2.33;;;11.10;99.90;;;;;;5045232;28;20893;-76
2022/11/03 01:17:20;;;;;;;12.82;4.13;;;11.10;99.90;;;;;;5054112;28;20044;-75
2022/11/03 01:19:46;;;;;;;14.18;3.08;;;11.10;99.90;;;;;;5050436;28;20047;-76
2022/11/03 01:22:13;;;;;;;5.75;2.40;;;11.10;99.90;;;;;;5051799;28;20790;-76
2022/11/03 01:24:40;;;;;;;5.78;3.00;;;11.10;99.90;;;;;;5048886;28;20054;-76
2022/11/03 01:27:08;;;;;;;5.38;2.22;;;11.00;99.90;;;;;;5046130;28;20684;-76
2022/11/03 01:29:33;;;;;;;5.47;2.88;;;11.00;99.90;;;;;;5045392;28;20051;-75
2022/11/03 01:31:59;;;;;;;4.78;2.50;;;11.00;99.90;;;;;;5047350;28;20052;-76
2022/11/03 01:34:24;;;;;;;8.90;2.78;;;11.00;99.90;;;;;;5042845;28;20045;-75
2022/11/03 01:36:50;;;;;;;6.95;2.90;;;11.00;99.90;;;;;;5042649;28;20048;-76
2022/11/03 01:39:18;;;;;;;7.80;2.35;;;11.00;99.90;;;;;;5053157;28;20083;-76
2022/11/03 01:41:45;;;;;;;5.72;2.97;;;11.00;99.90;;;;;;5040755;28;20120;-76
2022/11/03 01:44:11;;;;;;;5.38;2.50;;;10.90;99.90;;;;;;5046840;28;20048;-76
2022/11/03 01:46:59;;;;;;;6.22;2.92;;;10.90;99.90;;;;;;5056624;28;20780;-76
2022/11/03 01:49:42;;;;;;;8.52;2.92;;;10.90;99.90;;;;;;5044794;28;20045;-75
2022/11/03 01:52:32;;;;;;;17.42;3.65;;;10.90;99.90;;;;;;5045082;28;20067;-76
2022/11/03 01:55:03;;;;;;;7.85;3.03;;;10.80;99.90;;;;;;5049814;28;20050;-76
2022/11/03 01:57:43;;;;;;;13.77;4.95;;;10.80;99.90;;;;;;5046063;28;20076;-76
2022/11/03 02:00:09;;;;;;;7.40;2.97;;;10.80;99.90;;;;;;5040766;28;20136;-76
2022/11/03 02:02:35;;;;;;;7.50;2.80;;;10.80;99.90;;;;;;5041521;28;20048;-76
2022/11/03 02:05:03;;;;;;;7.82;2.95;;;10.80;99.90;;;;;;5042034;28;20051;-76
2022/11/03 02:07:36;;;;;;;10.23;3.67;;;10.80;99.90;;;;;;5055467;28;20224;-76
2022/11/03 02:10:02;;;;;;;9.15;3.03;;;10.80;99.90;;;;;;5047553;28;20066;-76
2022/11/03 02:12:29;;;;;;;10.15;3.85;;;10.80;99.90;;;;;;5049076;28;20048;-76
2022/11/03 02:15:10;;;;;;;11.48;3.40;;;10.80;99.90;;;;;;5043638;28;20044;-76
2022/11/03 02:17:38;;;;;;;11.65;4.45;;;10.80;99.90;;;;;;5055649;28;20076;-76
2022/11/03 02:20:11;;;;;;;13.43;3.55;;;10.80;99.90;;;;;;5053617;28;20037;-76
2022/11/03 02:22:52;;;;;;;7.78;3.75;;;10.90;99.90;;;;;;5050585;28;20523;-76
2022/11/03 02:25:42;;;;;;;7.20;2.60;;;10.80;99.90;;;;;;5047143;28;20198;-76
2022/11/03 02:28:08;;;;;;;9.73;3.55;;;10.80;99.90;;;;;;5048753;28;20049;-76
2022/11/03 02:30:49;;;;;;;6.53;3.17;;;10.80;99.90;;;;;;5048787;28;20045;-75
2022/11/03 02:33:29;;;;;;;7.63;3.17;;;10.80;99.90;;;;;;5046548;28;20044;-76
2022/11/03 02:36:29;;;;;;;6.88;2.80;;;10.80;99.90;;;;;;5047085;28;20064;-76
2022/11/03 02:39:03;;;;;;;8.48;3.85;;;10.80;99.90;;;;;;5041931;28;20088;-76
2022/11/03 02:41:33;;;;;;;6.82;3.38;;;10.80;99.90;;;;;;5047026;28;20052;-76
2022/11/03 02:44:00;;;;;;;5.63;2.75;;;10.50;99.90;;;;;;5050177;28;20480;-76
2022/11/03 02:46:28;;;;;;;11.55;2.85;;;10.80;99.90;;;;;;5046201;28;20485;-76
2022/11/03 02:48:56;;;;;;;5.07;2.80;;;10.80;99.90;;;;;;5041921;28;20048;-76
2022/11/03 02:51:25;;;;;;;7.68;2.53;;;10.80;99.90;;;;;;5043146;28;20091;-76
2022/11/03 02:54:21;;;;;;;8.63;3.70;;;10.80;99.90;;;;;;5042237;28;20055;-76
2022/11/03 02:56:59;;;;;;;15.38;4.60;;;10.80;99.90;;;;;;5047073;28;20388;-76
2022/11/03 02:59:42;;;;;;;8.57;3.05;;;10.80;99.90;;;;;;5050526;28;20056;-76
2022/11/03 03:02:12;;;;;;;8.13;3.47;;;10.80;99.90;;;;;;5053576;28;20053;-76
2022/11/03 03:04:55;;;;;;;5.90;3.15;;;10.80;99.90;;;;;;5055857;28;20047;-76
2022/11/03 03:07:31;;;;;;;8.73;3.47;;;10.90;99.90;;;;;;5046408;28;20164;-76
2022/11/03 03:10:08;;;;;;;11.75;3.55;;;10.90;99.90;;;;;;5043041;28;20049;-76
2022/11/03 03:12:37;;;;;;;6.22;3.30;;;10.90;99.90;;;;;;5050187;28;20075;-76
2022/11/03 03:15:05;;;;;;;7.63;3.38;;;11.00;99.90;;;;;;5047440;28;20052;-76
2022/11/03 03:17:43;;;;;;;7.15;2.95;;;11.00;99.90;;;;;;5051299;28;20048;-76
2022/11/03 03:20:21;;;;;;;10.60;4.30;;;11.00;99.90;;;;;;5049310;28;20506;-76
2022/11/03 03:23:11;;;;;;;7.68;3.40;;;11.00;99.90;;;;;;5042345;28;20846;-76
2022/11/03 03:25:49;;;;;;;9.82;3.50;;;11.00;99.90;;;;;;5041173;28;20053;-76
2022/11/03 03:28:22;;;;;;;6.57;3.05;;;11.00;99.90;;;;;;5043048;28;20049;-76
2022/11/03 03:30:51;;;;;;;6.53;3.70;;;11.00;99.90;;;;;;5042525;28;20087;-76
2022/11/03 03:33:17;;;;;;;11.05;3.88;;;11.00;99.90;;;;;;5052902;28;20044;-76
2022/11/03 03:35:47;;;;;;;16.45;3.80;;;11.00;99.90;;;;;;5052902;28;20050;-77
2022/11/03 03:38:17;;;;;;;5.35;3.53;;;11.00;99.90;;;;;;5045971;28;20048;-76
2022/11/03 03:40:47;;;;;;;11.88;3.40;;;11.00;99.90;;;;;;5051833;28;20053;-76
2022/11/03 03:43:13;;;;;;;9.88;3.72;;;11.00;99.90;;;;;;5051029;28;20251;-77
2022/11/03 03:45:42;;;;;;;6.00;3.80;;;11.00;99.90;;;;;;5049109;28;20254;-76
2022/11/03 03:48:08;;;;;;;5.85;3.15;;;11.00;99.90;;;;;;5049826;28;20056;-77
2022/11/03 03:50:37;;;;;;;7.45;3.55;;;11.00;99.90;;;;;;5048897;28;20938;-76
2022/11/03 03:53:05;;;;;;;5.00;2.95;;;11.00;99.90;;;;;;5043941;28;20052;-76
2022/11/03 03:55:44;;;;;;;8.40;3.70;;;11.00;99.90;;;;;;5048843;28;20080;-76
2022/11/03 03:58:12;;;;;;;5.97;3.53;;;11.10;99.90;;;;;;5046350;28;20068;-76
2022/11/03 04:00:39;;;;;;;8.25;3.28;;;11.00;99.90;;;;;;5044529;28;20057;-76
2022/11/03 04:03:05;;;;;;;7.95;2.70;;;11.00;99.90;;;;;;5048989;28;20044;-76
2022/11/03 04:05:31;;;;;;;6.15;2.67;;;11.00;99.90;;;;;;5052549;28;20843;-76
2022/11/03 04:07:57;;;;;;;7.20;3.58;;;11.00;99.90;;;;;;5045219;28;20159;-76
2022/11/03 04:10:23;;;;;;;8.00;3.38;;;11.00;99.90;;;;;;5043970;28;20043;-76
2022/11/03 04:23:50;;;;;;;6.97;3.42;;;10.90;99.90;;;;;;5044413;28;20060;-77
2022/11/03 04:26:18;;;;;;;6.43;3.00;;;10.90;99.90;;;;;;5052397;28;20048;-76
2022/11/03 04:28:45;;;;;;;7.72;3.63;;;10.90;99.90;;;;;;5049399;28;20657;-76
2022/11/03 04:31:15;;;;;;;7.20;2.97;;;10.90;99.90;;;;;;5053375;28;20853;-76
2022/11/03 04:33:41;;;;;;;5.68;2.80;;;10.90;99.90;;;;;;5049266;28;20060;-76
2022/11/03 04:36:10;;;;;;;8.90;3.22;;;10.90;99.90;;;;;;5050322;28;20048;-76
2022/11/03 04:38:36;;;;;;;6.53;3.15;;;10.90;99.90;;;;;;5051421;28;20480;-76
2022/11/03 04:41:11;;;;;;;4.63;2.60;;;10.90;99.90;;;;;;5054108;28;20053;-76
2022/11/03 04:43:37;;;;;;;9.50;3.47;;;10.90;99.90;;;;;;5043804;28;20049;-76
2022/11/03 04:46:04;;;;;;;11.60;3.90;;;10.90;99.90;;;;;;5048243;28;20441;-78
2022/11/03 04:48:32;;;;;;;8.88;3.60;;;10.90;99.90;;;;;;5053023;28;20049;-76
2022/11/03 04:51:01;;;;;;;9.98;4.00;;;10.90;99.90;;;;;;5045430;28;20099;-76
2022/11/03 04:53:31;;;;;;;10.00;3.65;;;11.00;99.90;;;;;;5049263;28;20394;-76
2022/11/03 04:55:56;;;;;;;9.85;3.88;;;11.00;99.90;;;;;;5052120;28;20124;-76
2022/11/03 04:58:28;;;;;;;8.13;3.35;;;11.00;99.90;;;;;;5050771;28;20048;-76
2022/11/03 05:00:58;;;;;;;7.90;3.13;;;11.00;99.90;;;;;;5046268;28;20055;-76
2022/11/03 05:03:31;;;;;;;4.80;3.00;;;11.00;99.90;;;;;;5046979;28;20127;-76
2022/11/03 05:05:57;;;;;;;8.48;3.38;;;11.00;99.90;;;;;;5050355;28;20740;-78
2022/11/03 05:08:23;;;;;;;11.82;3.28;;;11.10;99.90;;;;;;5051252;28;20041;-77
2022/11/03 05:10:49;;;;;;;6.53;2.83;;;11.10;99.90;;;;;;5056092;28;20139;-76
2022/11/03 05:13:24;;;;;;;10.70;3.58;;;11.10;99.90;;;;;;5048647;28;20049;-76
2022/11/03 05:16:03;;;;;;;12.25;3.70;;;11.10;99.90;;;;;;5053169;28;20087;-76
2022/11/03 05:18:37;;;;;;;11.65;3.20;;;11.10;99.90;;;;;;5048693;28;20110;-76
2022/11/03 05:21:17;;;;;;;9.07;3.45;;;11.00;99.90;;;;;;5050593;28;20052;-76
2022/11/03 05:23:53;;;;;;;7.40;2.72;;;11.10;99.90;;;;;;5050571;28;20654;-76
2022/11/03 05:26:23;;;;;;;7.90;3.28;;;11.10;99.90;;;;;;5045877;28;20127;-76
2022/11/03 05:28:53;;;;;;;5.70;3.35;;;11.10;99.90;;;;;;5054519;28;20048;-77
2022/11/03 05:31:30;;;;;;;10.55;2.83;;;11.10;99.90;;;;;;5052214;28;20163;-76
2022/11/03 05:34:01;;;;;;;8.77;2.90;;;11.00;99.90;;;;;;5047577;28;20048;-76
2022/11/03 05:36:29;;;;;;;7.88;3.30;;;11.00;99.90;;;;;;5047765;28;20489;-76
2022/11/03 05:39:18;;;;;;;9.20;2.80;;;11.00;99.90;;;;;;5054623;28;20040;-76
2022/11/03 05:41:44;;;;;;;8.20;3.03;;;11.00;99.90;;;;;;5048939;28;20095;-76
2022/11/03 05:44:24;;;;;;;7.90;3.72;;;11.00;99.90;;;;;;5049603;28;20492;-76
2022/11/03 05:46:49;;;;;;;8.00;3.05;;;10.90;99.90;;;;;;5054987;28;20159;-76
2022/11/03 05:49:15;;;;;;;6.13;3.17;;;11.00;99.90;;;;;;5045184;28;20044;-76
2022/11/03 05:51:43;;;;;;;13.23;3.00;;;10.90;99.90;;;;;;5050425;28;20101;-76
2022/11/03 05:54:26;;;;;;;7.90;3.35;;;11.00;99.90;;;;;;5047762;28;20049;-76
2022/11/03 05:56:52;;;;;;;9.07;3.00;;;11.00;99.90;;;;;;5051360;28;20048;-76
2022/11/03 05:59:25;;;;;;;6.43;2.65;;;11.00;99.90;;;;;;5047130;28;20871;-76
2022/11/03 06:01:52;;;;;;;5.10;3.45;;;11.00;99.90;;;;;;5050122;28;20057;-76
2022/11/03 06:04:31;;;;;;;6.20;2.47;;;11.00;99.90;;;;;;5054406;28;20153;-76
2022/11/03 06:07:30;;;;;;;13.05;3.30;;;11.10;99.90;;;;;;5046580;28;20724;-76
2022/11/03 06:09:57;;;;;;;10.10;2.88;;;11.10;99.90;;;;;;5048719;28;20048;-76
2022/11/03 06:12:24;;;;;;;8.30;3.10;;;11.10;99.90;;;;;;5046521;28;20230;-76
2022/11/03 06:14:51;;;;;;;5.03;2.90;;;11.00;99.90;;;;;;5048661;28;20059;-76
2022/11/03 06:17:27;;;;;;;4.78;2.53;;;11.10;99.90;;;;;;5047695;28;20052;-75
2022/11/03 06:19:57;;;;;;;5.93;3.50;;;11.00;99.90;;;;;;5048885;28;20858;-76
2022/11/03 06:22:34;;;;;;;7.35;3.13;;;11.10;99.90;;;;;;5050604;28;21474;-76
2022/11/03 06:25:30;;;;;;;4.85;2.85;;;11.10;99.90;;;;;;5051189;28;20426;-76
2022/11/03 06:28:01;;;;;;;9.07;4.32;;;11.00;99.90;;;;;;5054699;28;20045;-76
2022/11/03 06:30:35;;;;;;;9.93;3.38;;;11.10;99.90;;;;;;5049425;28;20052;-76
2022/11/03 06:33:23;;;;;;;8.18;4.18;;;11.00;99.90;;;;;;5050335;28;20515;-75
2022/11/03 06:35:51;;;;;;;6.05;3.30;;;11.10;99.90;;;;;;5054834;28;20144;-76
2022/11/03 06:38:26;;;;;;;9.45;3.22;;;11.00;99.90;;;;;;5045217;28;20798;-71
2022/11/03 06:40:52;;;;;;;11.25;3.40;;;11.00;99.90;;;;;;5040271;28;20071;-71
2022/11/03 06:43:45;;;;;;;6.55;3.10;;;11.00;99.90;;;;;;5055321;28;20041;-76
2022/11/03 06:46:19;;;;;;;8.30;3.90;;;11.00;99.90;;;;;;5042077;28;20055;-76
2022/11/03 06:48:45;;;;;;;6.28;2.97;;;11.10;99.90;;;;;;5044921;28;20467;-76
2022/11/03 06:51:20;;;;;;;6.60;3.05;;;11.10;99.90;;;;;;5050988;28;20554;-77
2022/11/03 06:53:48;;;;;;;13.40;4.07;;;11.10;99.90;;;;;;5045086;28;20054;-76
2022/11/03 06:56:22;;;;;;;10.45;3.63;;;11.10;99.90;;;;;;5044603;28;20076;-76
2022/11/03 06:58:51;;;;;;;12.65;3.08;;;11.20;99.90;;;;;;5043937;28;20060;-76
2022/11/03 07:01:29;;;;;;;5.82;2.60;;;11.60;99.90;;;;;;5045363;28;20089;-76
2022/11/03 07:04:17;;;;;;;5.93;3.22;;;11.20;99.90;;;;;;5043583;28;20114;-76
2022/11/03 07:06:43;;;;;;;11.07;3.28;;;11.20;99.90;;;;;;5045814;28;20057;-76
2022/11/03 07:09:20;;;;;;;5.43;2.78;;;11.20;99.90;;;;;;5043605;28;20052;-76
2022/11/03 07:11:52;;;;;;;18.08;4.00;;;11.20;99.90;;;;;;5046035;28;20048;-76
2022/11/03 07:14:21;;;;;;;5.03;3.00;;;11.30;99.90;;;;;;5041122;28;20045;-76
2022/11/03 07:16:49;;;;;;;5.22;2.45;;;11.30;99.90;;;;;;5045349;28;20044;-76
2022/11/03 07:19:24;;;;;;;6.57;4.07;;;11.40;99.90;;;;;;5040922;28;20045;-76
2022/11/03 07:21:53;;;;;;;6.93;3.10;;;11.40;99.90;;;;;;5038162;28;20053;-76
2022/11/03 07:24:32;;;;;;;5.05;2.60;;;11.50;99.90;;;;;;5040829;28;20065;-77
2022/11/03 07:27:22;;;;;;;9.02;3.17;;;11.50;99.90;;;;;;5049143;28;20091;-76
2022/11/03 07:29:55;;;;;;;6.70;3.10;;;11.60;99.90;;;;;;5038131;28;20040;-77
2022/11/03 07:32:25;;;;;;;4.43;2.60;;;11.60;99.90;;;;;;5048116;28;20060;-76
2022/11/03 07:34:52;;;;;;;10.20;3.15;;;11.70;99.90;;;;;;5048312;28;20040;-76
2022/11/03 07:37:24;;;;;;;7.95;2.85;;;11.70;99.90;;;;;;5042651;28;20102;-76
2022/11/03 07:39:51;;;;;;;8.40;3.80;;;11.80;99.90;;;;;;5043286;28;20124;-77
2022/11/03 07:42:20;;;;;;;4.72;2.67;;;11.80;99.90;;;;;;5044887;28;20386;-77
2022/11/03 07:44:47;;;;;;;5.32;2.63;;;11.90;99.90;;;;;;5043133;28;20048;-76
2022/11/03 07:47:15;;;;;;;8.15;2.85;;;11.90;99.90;;;;;;5043075;28;20048;-77
2022/11/03 07:49:41;;;;;;;5.35;2.85;;;11.90;99.90;;;;;;5040742;28;20404;-76
2022/11/03 07:52:15;;;;;;;8.15;3.00;;;12.00;99.90;;;;;;5050062;28;20458;-76
2022/11/03 07:54:41;;;;;;;6.88;2.85;;;12.00;99.90;;;;;;5039377;28;20055;-76
2022/11/03 07:57:22;;;;;;;6.93;3.05;;;12.10;99.90;;;;;;5040976;28;20040;-76
2022/11/03 07:59:55;;;;;;;7.85;3.60;;;12.20;99.90;;;;;;5048518;28;20052;-77
2022/11/03 08:02:32;;;;;;;10.18;3.53;;;12.20;99.90;;;;;;5048158;28;20076;-76
2022/11/03 08:04:58;;;;;;;9.48;2.90;;;12.30;99.90;;;;;;5051974;28;20135;-76
2022/11/03 08:07:24;;;;;;;7.55;4.20;;;12.20;99.90;;;;;;5048655;28;20213;-76
2022/11/03 08:09:50;;;;;;;6.85;2.85;;;12.40;99.90;;;;;;5049504;28;20068;-76
2022/11/03 08:12:16;;;;;;;3.65;2.45;;;12.50;99.90;;;;;;5040924;28;20107;-76
2022/11/03 08:14:42;;;;;;;6.95;3.50;;;12.50;99.90;;;;;;5046992;28;20779;-77
2022/11/03 08:17:07;;;;;;;12.23;3.47;;;12.50;99.90;;;;;;5051874;28;20044;-75
2022/11/03 08:19:33;;;;;;;8.35;2.38;;;13.00;99.90;;;;;;5054656;28;20050;-77
2022/11/03 08:21:59;;;;;;;8.55;3.15;;;12.70;99.90;;;;;;5043301;28;20052;-76
2022/11/03 08:24:25;;;;;;;7.97;3.28;;;12.80;99.90;;;;;;5042690;28;20401;-77
2022/11/03 08:26:50;;;;;;;6.88;3.25;;;12.90;99.90;;;;;;5044429;28;20166;-76
2022/11/03 08:29:16;;;;;;;6.30;2.95;;;12.90;99.90;;;;;;5044266;28;20051;-77
2022/11/03 08:31:43;;;;;;;10.20;2.72;;;12.90;99.90;;;;;;5049759;28;20575;-76
2022/11/03 08:34:09;;;;;;;6.90;3.20;;;13.00;99.90;;;;;;5049645;28;20202;-77
2022/11/03 08:36:35;;;;;;;8.02;2.78;;;13.10;99.90;;;;;;5048171;28;20048;-76
2022/11/03 08:39:01;;;;;;;4.82;3.25;;;13.10;99.90;;;;;;5052734;28;20500;-77
2022/11/03 08:41:26;;;;;;;5.35;3.08;;;13.10;99.90;;;;;;5044046;28;20148;-76
2022/11/03 08:43:52;;;;;;;8.02;3.05;;;13.20;99.90;;;;;;5051528;28;20067;-76
2022/11/03 08:46:17;;;;;;;8.23;3.30;;;13.10;99.90;;;;;;5054169;28;20231;-77
2022/11/03 08:48:44;;;;;;;6.35;3.08;;;13.10;99.90;;;;;;5049422;28;20428;-76
2022/11/03 08:51:12;;;;;;;9.80;3.40;;;13.10;99.90;;;;;;5045470;28;20049;-77
2022/11/03 08:53:39;;;;;;;9.05;2.80;;;13.20;99.90;;;;;;5045340;28;20045;-76
2022/11/03 08:56:05;;;;;;;8.43;3.17;;;13.20;99.90;;;;;;5042817;28;20039;-77
2022/11/03 08:58:31;;;;;;;4.75;3.17;;;13.20;99.90;;;;;;5046360;28;20045;-77
2022/11/03 09:00:57;;;;;;;8.07;3.42;;;13.20;99.90;;;;;;5047886;28;20075;-78
2022/11/03 09:03:23;;;;;;;6.93;3.15;;;13.20;99.90;;;;;;5049473;28;20068;-76
2022/11/03 09:05:48;;;;;;;6.60;3.75;;;13.20;99.90;;;;;;5050821;28;20143;-76
2022/11/03 09:08:14;;;;;;;10.68;3.72;;;13.20;99.90;;;;;;5044897;28;20049;-76
2022/11/03 09:10:40;;;;;;;6.57;2.60;;;13.30;99.90;;;;;;5042433;28;20195;-77
2022/11/03 09:13:05;;;;;;;7.22;3.05;;;13.30;99.90;;;;;;5045066;28;20072;-76
2022/11/03 09:15:31;;;;;;;5.70;2.35;;;13.40;99.90;;;;;;5047750;28;20559;-76
2022/11/03 09:17:57;;;;;;;4.63;2.53;;;13.50;99.90;;;;;;5056049;28;20040;-75
2022/11/03 09:20:23;;;;;;;7.55;2.67;;;13.50;99.90;;;;;;5052429;28;20118;-78
2022/11/03 09:22:49;;;;;;;11.65;3.47;;;13.50;99.90;;;;;;5047617;28;20040;-77
2022/11/03 09:25:15;;;;;;;8.18;3.30;;;13.60;99.90;;;;;;5049527;28;20075;-77
2022/11/03 09:27:40;;;;;;;5.53;2.60;;;13.70;99.90;;;;;;5052177;28;20131;-77
2022/11/03 09:30:06;;;;;;;8.50;3.00;;;13.70;99.90;;;;;;5050545;28;20048;-78
2022/11/03 09:32:33;;;;;;;4.07;2.63;;;13.80;99.90;;;;;;5052465;28;20110;-77
2022/11/03 09:34:59;;;;;;;5.38;2.53;;;13.80;99.90;;;;;;5045132;28;20145;-78
2022/11/03 09:37:25;;;;;;;7.07;3.35;;;13.90;99.90;;;;;;5051799;28;20537;-76
2022/11/03 09:39:50;;;;;;;7.68;2.70;;;13.90;99.90;;;;;;5045412;28;20056;-77
2022/11/03 09:42:17;;;;;;;5.45;2.88;;;14.00;99.90;;;;;;5046984;28;20070;-77
2022/11/03 09:44:45;;;;;;;5.07;2.80;;;14.00;99.90;;;;;;5048521;28;20746;-76
2022/11/03 09:47:23;;;;;;;4.82;2.67;;;14.10;99.90;;;;;;5041490;28;20852;-76
2022/11/03 09:49:49;;;;;;;7.80;2.80;;;14.20;99.90;;;;;;5046280;28;20123;-76
2022/11/03 09:52:19;;;;;;;6.80;3.33;;;14.30;99.90;;;;;;5049773;28;20882;-77
2022/11/03 09:54:45;;;;;;;7.30;3.42;;;14.40;99.90;;;;;;5049192;28;20540;-76
2022/11/03 09:57:14;;;;;;;13.68;3.42;;;14.40;99.90;;;;;;5043628;28;20048;-76
2022/11/03 09:59:45;;;;;;;8.90;3.10;;;14.50;99.90;;;;;;5039176;28;20064;-76
2022/11/03 10:02:24;;;;;;;6.40;3.20;;;14.60;99.90;;;;;;5052774;28;20459;-76
2022/11/03 10:04:52;;;;;;;5.40;2.78;;;14.70;99.90;;;;;;5054631;28;20049;-77
2022/11/03 10:07:18;;;;;;;4.38;2.58;;;14.90;99.90;;;;;;5050099;28;20049;-77
2022/11/03 10:09:47;;;;;;;4.43;2.33;;;15.00;99.90;;;;;;5055096;28;20044;-77
2022/11/03 10:12:13;;;;;;;6.50;2.53;;;15.10;99.90;;;;;;5050382;28;20123;-76
2022/11/03 10:14:41;;;;;;;6.63;2.88;;;15.20;99.90;;;;;;5055086;28;20789;-77
2022/11/03 10:17:14;;;;;;;8.27;3.40;;;15.20;99.90;;;;;;5055650;28;20056;-77
2022/11/03 10:19:39;;;;;;;4.85;3.10;;;15.20;99.90;;;;;;5047444;28;20045;-77
2022/11/03 10:22:06;;;;;;;4.88;2.03;;;15.20;99.90;;;;;;5055809;28;20063;-77
2022/11/03 10:24:31;;;;;;;7.35;2.88;;;15.20;99.90;;;;;;5053694;28;20040;-76
2022/11/03 10:26:57;;;;;;;5.18;3.00;;;15.20;99.90;;;;;;5041978;28;20048;-76
2022/11/03 10:29:25;;;;;;;9.02;2.85;;;15.20;99.90;;;;;;5044375;28;20553;-77
2022/11/03 10:31:53;;;;;;;7.13;2.67;;;15.20;99.90;;;;;;5046069;28;20299;-77
2022/11/03 10:34:38;;;;;;;9.77;2.95;;;15.30;99.90;;;;;;5049915;28;20048;-78
2022/11/03 10:37:16;;;;;;;8.77;3.38;;;15.30;99.90;;;;;;5046657;28;20044;-76
2022/11/03 10:39:44;;;;;;;4.97;2.95;;;15.50;99.90;;;;;;5049784;28;20053;-79
2022/11/03 10:42:23;;;;;;;7.25;3.30;;;15.60;99.90;;;;;;5049064;28;20179;-77
2022/11/03 10:44:53;;;;;;;6.30;2.35;;;15.80;99.90;;;;;;5044517;28;20068;-78
2022/11/03 10:47:33;;;;;;;4.35;2.50;;;16.00;99.90;;;;;;5044457;28;20056;-77
2022/11/03 10:50:19;;;;;;;6.75;2.78;;;16.20;99.90;;;;;;5046125;28;20063;-77
2022/11/03 10:52:45;;;;;;;6.97;2.88;;;16.30;99.90;;;;;;5041506;28;20912;-77
2022/11/03 10:55:11;;;;;;;4.85;2.30;;;16.30;99.90;;;;;;5049301;28;20044;-78
2022/11/03 10:57:37;;;;;;;4.93;2.80;;;16.30;99.90;;;;;;5045860;28;21455;-77
2022/11/03 11:00:03;;;;;;;4.50;2.47;;;16.30;99.90;;;;;;5042038;28;20111;-78
2022/11/03 11:02:30;;;;;;;6.63;2.22;;;16.30;99.90;;;;;;5044223;28;20056;-78
2022/11/03 11:05:02;;;;;;;6.97;2.67;;;16.10;99.90;;;;;;5047244;28;20048;-77
2022/11/03 11:07:37;;;;;;;4.32;2.53;;;16.20;99.90;;;;;;5050319;28;21343;-77
2022/11/03 11:10:10;;;;;;;3.30;2.33;;;16.30;99.90;;;;;;5047199;28;20044;-78
2022/11/03 11:12:36;;;;;;;5.10;2.25;;;16.30;99.90;;;;;;5048784;28;20071;-77
2022/11/03 11:15:23;;;;;;;4.32;2.20;;;16.40;99.90;;;;;;5042203;28;20261;-77
2022/11/03 11:17:49;;;;;;;5.20;2.28;;;16.40;99.90;;;;;;5039438;28;20473;-77
2022/11/03 11:20:20;;;;;;;4.00;2.45;;;16.40;99.90;;;;;;5044885;28;20036;-78
2022/11/03 11:22:46;;;;;;;5.30;2.22;;;16.40;99.90;;;;;;5042418;28;20072;-77
2022/11/03 11:25:12;;;;;;;6.15;2.25;;;16.60;99.90;;;;;;5049577;28;20051;-78
2022/11/03 11:27:38;;;;;;;6.35;2.25;;;16.60;99.90;;;;;;5047643;28;20045;-77
2022/11/03 11:30:06;;;;;;;3.63;2.42;;;16.70;99.90;;;;;;5047900;28;20054;-77
2022/11/03 11:32:41;;;;;;;7.80;2.53;;;16.80;99.90;;;;;;5048385;28;20047;-76
2022/11/03 11:35:08;;;;;;;6.63;2.40;;;16.80;99.90;;;;;;5043719;28;20714;-78
2022/11/03 11:37:35;;;;;;;5.07;2.35;;;16.80;99.90;;;;;;5047617;28;20055;-78
2022/11/03 11:40:10;;;;;;;4.97;2.40;;;16.80;99.90;;;;;;5044901;28;20055;-77
2022/11/03 11:43:01;;;;;;;7.40;2.10;;;16.70;99.90;;;;;;5046996;28;20048;-77
2022/11/03 11:46:05;;;;;;;6.28;2.22;;;16.70;99.90;;;;;;5042161;28;20080;-77
2022/11/03 11:48:31;;;;;;;7.90;2.55;;;16.70;99.90;;;;;;5048907;28;20049;-77
2022/11/03 11:50:58;;;;;;;6.70;2.38;;;16.60;99.90;;;;;;5051294;28;20051;-76
2022/11/03 11:53:25;;;;;;;4.00;2.00;;;16.70;99.90;;;;;;5046378;28;20875;-77
2022/11/03 11:55:56;;;;;;;8.57;2.55;;;16.70;99.90;;;;;;5045251;28;20127;-77
2022/11/03 11:58:34;;;;;;;5.68;2.10;;;16.70;99.90;;;;;;5037987;28;20114;-78
2022/11/03 12:01:18;;;;;;;6.18;2.03;;;16.60;99.90;;;;;;5047835;28;20059;-77
2022/11/03 12:03:45;;;;;;;3.33;2.15;;;16.60;99.90;;;;;;5042735;28;20052;-78
2022/11/03 12:06:14;;;;;;;7.47;2.35;;;16.60;99.90;;;;;;5043630;28;20130;-77
2022/11/03 12:08:40;;;;;;;6.85;2.03;;;16.50;99.90;;;;;;5043093;28;20666;-76
2022/11/03 12:11:08;;;;;;;8.45;2.30;;;16.50;99.90;;;;;;5049203;28;20083;-76
2022/11/03 12:13:35;;;;;;;11.25;3.28;;;16.50;99.90;;;;;;5045116;28;20550;-77
2022/11/03 12:16:01;;;;;;;4.18;1.90;;;16.50;99.90;;;;;;5045239;28;20051;-77
2022/11/03 12:18:37;;;;;;;6.13;1.83;;;16.40;99.90;;;;;;5048528;28;20044;-78
2022/11/03 12:21:14;;;;;;;4.22;1.88;;;16.40;99.90;;;;;;5045579;28;20097;-77
2022/11/03 12:23:42;;;;;;;6.00;2.50;;;16.40;99.90;;;;;;5044641;28;20091;-76
2022/11/03 12:26:17;;;;;;;3.45;2.28;;;16.30;99.90;;;;;;5049963;28;20048;-77
2022/11/03 12:28:43;;;;;;;5.63;1.70;;;16.30;99.90;;;;;;5045577;28;20055;-78
2022/11/03 12:31:09;;;;;;;8.23;2.20;;;16.30;99.90;;;;;;5048445;28;20897;-77
2022/11/03 12:33:35;;;;;;;8.13;2.08;;;16.30;99.90;;;;;;5056691;28;20049;-77
2022/11/03 12:36:01;;;;;;;5.50;2.00;;;16.30;99.90;;;;;;5044774;28;20053;-78
2022/11/03 12:38:26;;;;;;;4.68;2.47;;;16.30;99.90;;;;;;5054152;28;20928;-77
2022/11/03 12:40:52;;;;;;;3.25;1.88;;;16.30;99.90;;;;;;5047099;28;20591;-77
2022/11/03 12:43:18;;;;;;;5.32;2.50;;;16.20;99.90;;;;;;5045898;28;20040;-77
2022/11/03 12:45:44;;;;;;;6.82;3.08;;;16.20;99.90;;;;;;5045062;28;20607;-77
2022/11/03 12:48:10;;;;;;;7.47;1.85;;;16.10;99.90;;;;;;5045796;28;20091;-77
2022/11/03 12:50:38;;;;;;;4.28;1.88;;;16.10;99.90;;;;;;5050307;28;20048;-76
2022/11/03 12:53:05;;;;;;;3.65;1.80;;;16.10;99.90;;;;;;5050412;28;20052;-76
2022/11/03 12:55:32;;;;;;;5.32;3.08;;;16.00;99.90;;;;;;5054925;28;20177;-75
2022/11/03 12:57:58;;;;;;;5.05;2.10;;;16.00;99.90;;;;;;5044287;28;20183;-76
2022/11/03 13:00:23;;;;;;;4.25;2.03;;;15.90;99.90;;;;;;5051144;28;20056;-76
2022/11/03 13:02:49;;;;;;;4.07;1.85;;;15.90;99.90;;;;;;5048551;28;20056;-75
2022/11/03 13:05:15;;;;;;;3.40;1.98;;;15.90;99.90;;;;;;5046860;28;20557;-75
2022/11/03 13:07:42;;;;;;;4.05;2.50;;;15.90;99.90;;;;;;5048479;28;20118;-75
2022/11/03 13:10:08;;;;;;;9.13;2.28;;;16.00;99.90;;;;;;5047213;28;20057;-74
2022/11/03 13:12:35;;;;;;;7.15;2.05;;;16.00;99.90;;;;;;5048696;28;20056;-76
2022/11/03 13:15:06;;;;;;;5.38;1.70;;;16.10;99.90;;;;;;5046321;28;20605;-75
2022/11/03 13:17:33;;;;;;;3.92;2.20;;;16.20;99.90;;;;;;5050626;28;20045;-78
2022/11/03 13:19:59;;;;;;;5.82;1.98;;;16.20;99.90;;;;;;5049882;28;20049;-79